Time;durP1;ratioP1;P1;durP2;ratioP2;P2;SDS_P1;SDS_P2;PMS_P1;PMS_P2;Temp;Humidity;BMP_temperature;BMP_pressure;BME280_temperature;BME280_humidity;BME280_pressure;Samples;Min_cycle;Max_cycle;Signal;HPM_P1;HPM_P2
2022/04/16 00:02:01;;;;;;;8.07;7.60;;;11.20;69.50;;;;;;5032026;28;20261;-56
2022/04/16 00:04:28;;;;;;;7.60;7.10;;;11.20;69.60;;;;;;5032237;28;20203;-56
2022/04/16 00:06:56;;;;;;;7.95;7.35;;;11.20;69.20;;;;;;5032160;28;20207;-57
2022/04/16 00:09:24;;;;;;;8.20;7.80;;;11.10;69.10;;;;;;5032101;28;20323;-57
2022/04/16 00:11:50;;;;;;;7.82;7.40;;;11.10;69.10;;;;;;5031574;28;20198;-57
2022/04/16 00:14:19;;;;;;;8.55;7.95;;;11.10;69.20;;;;;;5030766;28;20202;-56
2022/04/16 00:16:46;;;;;;;8.00;7.60;;;11.00;69.30;;;;;;5031872;28;20201;-57
2022/04/16 00:19:14;;;;;;;7.78;7.32;;;11.00;69.50;;;;;;5032027;28;20683;-57
2022/04/16 00:21:41;;;;;;;7.90;7.50;;;11.00;69.40;;;;;;5031771;28;20234;-57
2022/04/16 00:24:09;;;;;;;8.02;7.55;;;10.90;70.00;;;;;;5031835;28;20672;-57
2022/04/16 00:26:38;;;;;;;7.85;7.45;;;10.90;70.60;;;;;;5031912;28;20411;-57
2022/04/16 00:29:05;;;;;;;7.88;7.30;;;10.90;69.80;;;;;;5030520;28;20206;-57
2022/04/16 00:31:32;;;;;;;8.32;7.88;;;10.90;69.70;;;;;;5031454;28;20278;-57
2022/04/16 00:34:00;;;;;;;7.75;7.35;;;10.70;69.70;;;;;;5031667;28;20660;-56
2022/04/16 00:36:27;;;;;;;7.90;7.50;;;10.50;70.30;;;;;;5031716;28;20206;-57
2022/04/16 00:38:54;;;;;;;8.18;7.68;;;10.30;70.70;;;;;;5031434;28;20603;-56
2022/04/16 00:41:23;;;;;;;8.50;7.95;;;10.30;70.90;;;;;;5031501;28;20695;-57
2022/04/16 00:43:52;;;;;;;8.10;7.65;;;10.40;71.20;;;;;;5030334;28;20235;-57
2022/04/16 00:46:19;;;;;;;8.00;7.60;;;10.40;70.30;;;;;;5031164;28;20205;-57
2022/04/16 00:48:46;;;;;;;7.80;7.40;;;10.30;70.40;;;;;;5031672;28;20206;-56
2022/04/16 00:51:14;;;;;;;8.00;7.55;;;10.40;70.40;;;;;;5031680;28;20230;-57
2022/04/16 00:53:41;;;;;;;8.00;7.60;;;10.40;70.10;;;;;;5031396;28;20201;-57
2022/04/16 00:56:10;;;;;;;8.23;7.82;;;10.40;70.60;;;;;;5031227;28;20726;-56
2022/04/16 00:58:39;;;;;;;8.68;8.18;;;10.50;69.80;;;;;;5029901;28;20252;-56
2022/04/16 01:01:06;;;;;;;8.32;7.80;;;10.60;69.50;;;;;;5031059;28;20236;-57
2022/04/16 01:03:33;;;;;;;7.95;7.45;;;10.50;69.80;;;;;;5031413;28;20244;-56
2022/04/16 01:06:00;;;;;;;8.73;8.13;;;10.60;69.70;;;;;;5031247;28;20207;-57
2022/04/16 01:08:27;;;;;;;7.90;7.50;;;10.70;69.60;;;;;;5031191;28;20704;-58
2022/04/16 01:10:54;;;;;;;8.30;7.80;;;10.70;69.50;;;;;;5031253;28;20294;-57
2022/04/16 01:13:21;;;;;;;8.60;8.00;;;10.70;69.20;;;;;;5029847;28;20236;-58
2022/04/16 01:15:50;;;;;;;8.25;7.75;;;10.80;69.10;;;;;;5030959;28;20269;-58
2022/04/16 01:18:17;;;;;;;8.63;8.02;;;10.70;69.00;;;;;;5031048;28;20202;-58
2022/04/16 01:20:44;;;;;;;8.07;7.57;;;10.60;69.00;;;;;;5030907;28;20201;-59
2022/04/16 01:23:13;;;;;;;8.00;7.60;;;10.40;70.00;;;;;;5029999;28;20671;-58
2022/04/16 01:25:39;;;;;;;8.50;8.00;;;10.50;70.00;;;;;;5030960;28;20207;-57
2022/04/16 01:28:07;;;;;;;7.65;7.25;;;10.50;70.20;;;;;;5030465;28;20287;-57
2022/04/16 01:30:34;;;;;;;8.32;7.90;;;10.60;69.80;;;;;;5030265;28;20678;-58
2022/04/16 01:33:01;;;;;;;7.60;7.20;;;10.70;70.20;;;;;;5030642;28;20206;-58
2022/04/16 01:35:28;;;;;;;8.50;8.00;;;10.60;69.40;;;;;;5030803;28;20209;-58
2022/04/16 01:37:55;;;;;;;7.75;7.25;;;10.60;69.50;;;;;;5030684;28;20245;-58
2022/04/16 01:40:25;;;;;;;7.82;7.32;;;10.60;69.90;;;;;;5030651;28;20673;-58
2022/04/16 01:42:56;;;;;;;8.02;7.53;;;10.60;70.40;;;;;;5030552;28;20697;-58
2022/04/16 01:45:23;;;;;;;7.95;7.45;;;10.70;69.50;;;;;;5029378;28;20212;-59
2022/04/16 01:47:51;;;;;;;8.45;7.95;;;10.80;69.70;;;;;;5030557;28;20299;-58
2022/04/16 01:50:19;;;;;;;8.30;7.80;;;10.80;69.40;;;;;;5030558;28;20212;-58
2022/04/16 01:52:47;;;;;;;7.85;7.45;;;10.90;69.30;;;;;;5030441;28;20212;-58
2022/04/16 01:55:14;;;;;;;7.97;7.47;;;10.90;69.50;;;;;;5030354;28;20295;-58
2022/04/16 01:57:43;;;;;;;7.85;7.35;;;10.80;69.50;;;;;;5030486;28;20209;-58
2022/04/16 02:00:14;;;;;;;8.60;8.10;;;10.70;69.60;;;;;;5029179;28;20292;-57
2022/04/16 02:02:41;;;;;;;7.45;7.07;;;10.70;69.70;;;;;;5030246;28;20230;-58
2022/04/16 02:05:09;;;;;;;8.48;7.88;;;10.70;69.70;;;;;;5030299;28;20322;-59
2022/04/16 02:07:38;;;;;;;8.18;7.78;;;10.70;69.30;;;;;;5030136;28;20209;-58
2022/04/16 02:10:06;;;;;;;7.50;7.10;;;10.60;69.40;;;;;;5030268;28;20202;-58
2022/04/16 02:12:33;;;;;;;8.00;7.40;;;10.60;69.40;;;;;;5030277;28;20211;-57
2022/04/16 02:15:02;;;;;;;8.13;7.72;;;10.50;69.60;;;;;;5028940;28;20206;-58
2022/04/16 02:17:29;;;;;;;7.85;7.45;;;10.50;69.50;;;;;;5030073;28;20296;-58
2022/04/16 02:19:56;;;;;;;7.95;7.55;;;10.40;69.60;;;;;;5030151;28;20208;-58
2022/04/16 02:22:24;;;;;;;7.28;6.88;;;10.20;70.00;;;;;;5029981;28;20354;-58
2022/04/16 02:24:50;;;;;;;8.48;7.97;;;10.20;70.20;;;;;;5029974;28;20623;-58
2022/04/16 02:27:17;;;;;;;9.30;8.70;;;10.20;69.90;;;;;;5030034;28;20287;-57
2022/04/16 02:29:44;;;;;;;8.60;8.10;;;10.20;70.20;;;;;;5028880;28;20286;-58
2022/04/16 02:32:13;;;;;;;8.45;7.95;;;10.20;70.20;;;;;;5029816;28;20296;-58
2022/04/16 02:34:40;;;;;;;8.75;8.15;;;10.10;70.30;;;;;;5029694;28;20206;-57
2022/04/16 02:37:07;;;;;;;8.10;7.55;;;10.10;70.30;;;;;;5030049;28;20236;-58
2022/04/16 02:39:34;;;;;;;8.77;8.18;;;10.10;70.30;;;;;;5029676;28;20232;-57
2022/04/16 02:42:01;;;;;;;8.00;7.60;;;10.10;70.70;;;;;;5029872;28;20236;-57
2022/04/16 02:47:14;;;;;;;8.30;7.80;;;10.00;70.50;;;;;;5029632;28;20280;-57
2022/04/16 02:49:40;;;;;;;8.50;7.90;;;9.90;70.50;;;;;;5029810;28;20231;-58
2022/04/16 02:52:08;;;;;;;7.70;7.30;;;9.90;70.90;;;;;;5029811;28;20235;-58
2022/04/16 02:54:35;;;;;;;8.57;8.02;;;9.80;71.10;;;;;;5029576;28;20203;-57
2022/04/16 02:57:03;;;;;;;8.00;7.50;;;9.80;71.10;;;;;;5029602;28;20690;-57
2022/04/16 02:59:30;;;;;;;8.20;7.70;;;9.80;71.50;;;;;;5028482;28;20201;-58
2022/04/16 03:01:57;;;;;;;7.47;7.03;;;9.70;71.50;;;;;;5029199;28;20596;-57
2022/04/16 03:04:26;;;;;;;7.90;7.47;;;9.80;71.50;;;;;;5029636;28;20612;-56
2022/04/16 03:06:53;;;;;;;8.30;7.70;;;9.80;71.20;;;;;;5029503;28;20204;-57
2022/04/16 03:09:20;;;;;;;7.65;7.15;;;9.80;71.30;;;;;;5029551;28;20295;-57
2022/04/16 03:11:47;;;;;;;8.00;7.60;;;9.80;71.30;;;;;;5029565;28;20204;-56
2022/04/16 03:19:45;;;;;;;8.45;7.85;;;9.70;71.70;;;;;;5029456;28;20227;-57
2022/04/16 03:22:12;;;;;;;8.32;7.82;;;9.70;71.70;;;;;;5029327;28;20232;-58
2022/04/16 03:24:39;;;;;;;8.25;7.75;;;9.60;72.00;;;;;;5029357;28;20219;-57
2022/04/16 03:27:06;;;;;;;8.35;7.75;;;9.60;72.10;;;;;;5029305;28;20231;-57
2022/04/16 03:29:34;;;;;;;8.50;7.90;;;9.50;72.10;;;;;;5028006;28;20208;-57
2022/04/16 03:32:00;;;;;;;8.45;7.95;;;9.50;72.10;;;;;;5029083;28;20208;-57
2022/04/16 03:34:27;;;;;;;8.50;7.90;;;9.60;72.10;;;;;;5029229;28;20210;-58
2022/04/16 03:36:59;;;;;;;8.02;7.53;;;9.60;72.40;;;;;;5029221;28;20204;-58
2022/04/16 03:39:26;;;;;;;7.97;7.45;;;9.50;73.00;;;;;;5028934;28;20230;-58
2022/04/16 03:41:53;;;;;;;7.75;7.25;;;9.50;72.50;;;;;;5029007;28;20231;-57
2022/04/16 03:44:20;;;;;;;7.80;7.30;;;9.50;73.20;;;;;;5027910;28;20287;-57
2022/04/16 03:46:47;;;;;;;8.57;7.97;;;9.50;72.90;;;;;;5030993;28;20742;-58
2022/04/16 03:49:14;;;;;;;8.68;8.07;;;9.60;73.00;;;;;;5032559;28;20238;-57
2022/04/16 03:51:41;;;;;;;9.10;8.50;;;9.60;73.00;;;;;;5032358;28;20569;-58
2022/04/16 04:02:22;;;;;;;8.40;7.90;;;9.80;72.70;;;;;;5031988;28;20238;-57
2022/04/16 04:04:49;;;;;;;8.93;8.32;;;9.90;72.60;;;;;;5032291;28;20218;-57
2022/04/16 04:07:16;;;;;;;8.27;7.68;;;9.90;71.90;;;;;;5032283;28;20205;-57
2022/04/16 04:09:44;;;;;;;9.18;8.57;;;9.90;72.90;;;;;;5032143;28;20206;-57
2022/04/16 04:12:12;;;;;;;8.90;8.40;;;9.90;72.70;;;;;;5032070;28;20671;-57
2022/04/16 04:14:39;;;;;;;8.68;8.07;;;9.80;73.00;;;;;;5030734;28;20250;-57
2022/04/16 04:17:07;;;;;;;8.55;8.05;;;9.80;72.60;;;;;;5031782;28;20671;-57
2022/04/16 04:19:36;;;;;;;8.63;8.13;;;9.80;72.70;;;;;;5031991;28;20208;-57
2022/04/16 04:22:03;;;;;;;8.98;8.40;;;9.80;72.70;;;;;;5032040;28;20250;-58
2022/04/16 04:24:30;;;;;;;8.88;8.27;;;9.80;72.80;;;;;;5031882;28;20635;-58
2022/04/16 04:26:59;;;;;;;9.43;8.93;;;9.90;72.70;;;;;;5031857;28;20206;-57
2022/04/16 04:29:26;;;;;;;9.20;8.60;;;9.90;72.20;;;;;;5030533;28;20204;-57
2022/04/16 04:31:52;;;;;;;9.10;8.50;;;9.90;71.90;;;;;;5031647;28;20212;-57
2022/04/16 04:34:19;;;;;;;9.38;8.70;;;9.90;72.30;;;;;;5031745;28;20252;-57
2022/04/16 04:36:46;;;;;;;9.70;9.00;;;9.80;72.60;;;;;;5031649;28;20564;-57
2022/04/16 04:39:14;;;;;;;8.77;8.27;;;9.70;72.20;;;;;;5031544;28;20728;-57
2022/04/16 04:41:42;;;;;;;8.70;8.10;;;9.70;72.90;;;;;;5031536;28;20621;-58
2022/04/16 04:44:11;;;;;;;8.60;8.10;;;9.60;72.60;;;;;;5030363;28;20209;-57
2022/04/16 04:46:38;;;;;;;9.25;8.65;;;9.60;73.00;;;;;;5031612;28;20356;-58
2022/04/16 04:49:08;;;;;;;8.40;7.90;;;9.50;72.70;;;;;;5031485;28;20654;-57
2022/04/16 04:51:35;;;;;;;8.98;8.38;;;9.40;73.30;;;;;;5031561;28;20209;-57
2022/04/16 04:54:02;;;;;;;8.52;8.02;;;9.40;73.00;;;;;;5031469;28;20635;-57
2022/04/16 04:56:29;;;;;;;8.43;7.93;;;9.50;73.20;;;;;;5031400;28;20213;-57
2022/04/16 04:58:56;;;;;;;8.75;8.15;;;9.40;73.70;;;;;;5030078;28;20477;-57
2022/04/16 05:01:24;;;;;;;8.35;7.75;;;9.40;73.70;;;;;;5031157;28;20208;-57
2022/04/16 05:03:52;;;;;;;8.80;8.30;;;9.40;73.90;;;;;;5031298;28;20352;-56
2022/04/16 05:06:19;;;;;;;8.00;7.50;;;9.50;73.60;;;;;;5031422;28;20291;-57
2022/04/16 05:08:45;;;;;;;9.20;8.60;;;9.50;73.90;;;;;;5031317;28;20204;-57
2022/04/16 05:11:13;;;;;;;9.25;8.65;;;9.40;74.10;;;;;;5030980;28;20298;-57
2022/04/16 05:13:40;;;;;;;9.30;8.68;;;9.60;73.40;;;;;;5029873;28;20212;-57
2022/04/16 05:16:07;;;;;;;9.07;8.48;;;9.70;73.30;;;;;;5031052;28;20664;-58
2022/04/16 05:18:36;;;;;;;9.35;8.65;;;9.60;72.50;;;;;;5030977;28;20211;-58
2022/04/16 05:21:02;;;;;;;8.93;8.32;;;9.60;72.70;;;;;;5031033;28;20204;-58
2022/04/16 05:23:29;;;;;;;8.75;8.15;;;9.80;72.70;;;;;;5030883;28;20335;-58
2022/04/16 05:25:56;;;;;;;9.38;8.57;;;9.90;72.30;;;;;;5030779;28;20204;-58
2022/04/16 05:28:23;;;;;;;9.48;8.80;;;10.10;72.20;;;;;;5029673;28;20207;-57
2022/04/16 05:30:54;;;;;;;9.60;8.90;;;10.20;71.80;;;;;;5030891;28;20243;-57
2022/04/16 05:36:08;;;;;;;9.18;8.52;;;10.30;71.70;;;;;;5030896;28;20588;-58
2022/04/16 05:38:34;;;;;;;9.30;8.60;;;10.40;71.40;;;;;;5030630;28;20314;-56
2022/04/16 05:41:02;;;;;;;8.98;8.43;;;10.30;71.50;;;;;;5030847;28;20205;-57
2022/04/16 05:43:29;;;;;;;8.60;8.00;;;10.40;71.30;;;;;;5029595;28;20235;-57
2022/04/16 05:45:55;;;;;;;10.00;9.30;;;10.50;71.10;;;;;;5030709;28;20205;-57
2022/04/16 05:48:22;;;;;;;8.85;8.25;;;10.60;70.80;;;;;;5030443;28;20657;-57
2022/04/16 05:50:49;;;;;;;9.45;8.57;;;10.60;70.80;;;;;;5030646;28;20205;-57
2022/04/16 05:53:18;;;;;;;8.70;8.20;;;10.70;70.50;;;;;;5030628;28;20204;-57
2022/04/16 05:55:47;;;;;;;8.50;8.00;;;10.70;70.40;;;;;;5030492;28;20224;-56
2022/04/16 05:58:14;;;;;;;8.75;8.25;;;10.70;70.70;;;;;;5029185;28;20569;-57
2022/04/16 06:00:41;;;;;;;9.35;8.60;;;10.70;70.70;;;;;;5030415;28;20300;-56
2022/04/16 06:03:09;;;;;;;10.23;9.32;;;10.70;70.70;;;;;;5030107;28;20249;-57
2022/04/16 06:05:36;;;;;;;9.02;8.43;;;10.80;70.40;;;;;;5030352;28;20211;-57
2022/04/16 06:08:02;;;;;;;9.50;8.80;;;10.60;71.30;;;;;;5030158;28;20204;-57
2022/04/16 06:10:31;;;;;;;9.20;8.50;;;10.60;70.60;;;;;;5029996;28;20641;-56
2022/04/16 06:12:58;;;;;;;9.73;9.02;;;10.50;71.30;;;;;;5030328;28;20208;-57
2022/04/16 06:15:25;;;;;;;9.65;8.80;;;10.60;70.80;;;;;;5028863;28;20247;-57
2022/04/16 06:17:52;;;;;;;9.23;8.63;;;10.70;70.70;;;;;;5029895;28;20671;-56
2022/04/16 06:20:19;;;;;;;10.18;9.27;;;10.70;70.50;;;;;;5030269;28;20299;-57
2022/04/16 06:22:45;;;;;;;8.93;8.32;;;10.80;70.20;;;;;;5030169;28;20235;-57
2022/04/16 06:25:12;;;;;;;9.48;8.77;;;10.70;70.50;;;;;;5030102;28;20218;-57
2022/04/16 06:27:41;;;;;;;9.55;8.85;;;10.70;70.30;;;;;;5030263;28;20587;-57
2022/04/16 06:30:10;;;;;;;10.10;9.30;;;10.80;70.20;;;;;;5028660;28;20209;-57
2022/04/16 06:32:37;;;;;;;8.68;8.10;;;10.80;70.10;;;;;;5029715;28;20209;-57
2022/04/16 06:35:06;;;;;;;9.10;8.50;;;10.90;70.10;;;;;;5029950;28;20295;-57
2022/04/16 06:37:33;;;;;;;9.00;8.30;;;10.80;70.80;;;;;;5029702;28;20208;-57
2022/04/16 06:40:00;;;;;;;9.30;8.60;;;10.90;70.50;;;;;;5029753;28;20208;-56
2022/04/16 06:42:27;;;;;;;9.82;9.13;;;10.90;70.30;;;;;;5029824;28;20247;-57
2022/04/16 06:44:55;;;;;;;10.20;9.50;;;10.80;71.10;;;;;;5028416;28;20580;-57
2022/04/16 06:47:22;;;;;;;9.30;8.70;;;10.90;70.80;;;;;;5029605;28;20231;-57
2022/04/16 06:49:49;;;;;;;9.23;8.43;;;11.00;70.40;;;;;;5029734;28;20204;-57
2022/04/16 06:52:18;;;;;;;14.10;12.90;;;10.80;71.20;;;;;;5029668;28;20207;-57
2022/04/16 06:54:44;;;;;;;10.63;9.73;;;10.90;71.00;;;;;;5029698;28;20232;-57
2022/04/16 06:57:11;;;;;;;9.82;9.13;;;10.90;71.00;;;;;;5029730;28;20309;-57
2022/04/16 06:59:38;;;;;;;9.65;8.75;;;10.90;71.10;;;;;;5028354;28;20312;-57
2022/04/16 07:02:07;;;;;;;8.95;8.25;;;10.90;70.30;;;;;;5029472;28;20298;-57
2022/04/16 07:04:34;;;;;;;9.80;9.00;;;11.00;69.90;;;;;;5029537;28;20232;-56
2022/04/16 07:07:01;;;;;;;9.93;9.13;;;11.10;70.00;;;;;;5029664;28;20208;-57
2022/04/16 07:09:28;;;;;;;9.85;9.05;;;11.00;70.50;;;;;;5029573;28;20365;-57
2022/04/16 07:11:55;;;;;;;8.85;8.35;;;11.00;70.30;;;;;;5029482;28;20204;-56
2022/04/16 07:14:22;;;;;;;9.45;8.65;;;11.10;70.10;;;;;;5028044;28;20234;-57
2022/04/16 07:16:49;;;;;;;9.55;8.75;;;11.20;69.90;;;;;;5029387;28;20205;-56
2022/04/16 07:19:17;;;;;;;9.15;8.45;;;11.10;70.40;;;;;;5029477;28;20299;-57
2022/04/16 07:21:50;;;;;;;9.55;8.85;;;11.00;70.40;;;;;;5031512;28;20250;-57
2022/04/16 07:24:17;;;;;;;9.60;8.90;;;11.00;70.60;;;;;;5032798;28;20268;-56
2022/04/16 07:26:47;;;;;;;10.27;9.48;;;11.10;70.00;;;;;;5032746;28;20231;-57
2022/04/16 07:29:14;;;;;;;10.48;9.68;;;11.10;69.80;;;;;;5031609;28;20209;-57
2022/04/16 07:31:41;;;;;;;9.68;8.98;;;11.10;70.20;;;;;;5032821;28;20643;-57
2022/04/16 07:34:08;;;;;;;9.90;9.10;;;11.10;70.20;;;;;;5032641;28;20240;-58
2022/04/16 07:36:36;;;;;;;10.30;9.60;;;11.10;70.60;;;;;;5032494;28;20667;-57
2022/04/16 07:39:03;;;;;;;9.40;8.70;;;11.10;70.50;;;;;;5032574;28;20693;-56
2022/04/16 07:41:30;;;;;;;10.63;9.63;;;11.00;70.50;;;;;;5032463;28;20667;-57
2022/04/16 07:44:02;;;;;;;10.88;10.00;;;11.10;70.50;;;;;;5031208;28;20335;-57
2022/04/16 07:46:29;;;;;;;10.77;9.88;;;11.20;70.40;;;;;;5032404;28;20204;-57
2022/04/16 07:48:57;;;;;;;10.38;9.68;;;11.30;70.10;;;;;;5032238;28;20638;-57
2022/04/16 07:51:24;;;;;;;10.43;9.57;;;11.20;70.70;;;;;;5032448;28;20219;-56
2022/04/16 07:53:52;;;;;;;10.10;9.40;;;11.10;71.00;;;;;;5032196;28;20261;-57
2022/04/16 07:56:19;;;;;;;10.60;9.75;;;11.20;70.30;;;;;;5032415;28;20628;-57
2022/04/16 07:58:47;;;;;;;10.75;9.82;;;11.20;70.70;;;;;;5031024;28;20577;-57
2022/04/16 08:01:14;;;;;;;10.43;9.63;;;11.10;70.00;;;;;;5032156;28;20262;-57
2022/04/16 08:03:40;;;;;;;11.43;10.45;;;11.00;71.90;;;;;;5031971;28;20234;-56
2022/04/16 08:06:07;;;;;;;11.35;10.38;;;11.00;71.50;;;;;;5032239;28;20231;-56
2022/04/16 08:08:34;;;;;;;10.10;9.40;;;11.10;71.40;;;;;;5031968;28;20656;-58
2022/04/16 08:11:03;;;;;;;10.40;9.60;;;11.30;70.90;;;;;;5032166;28;20260;-56
2022/04/16 08:13:29;;;;;;;10.77;9.98;;;11.30;70.30;;;;;;5017287;28;20209;-58
2022/04/16 08:15:56;;;;;;;11.32;10.43;;;11.30;70.70;;;;;;5012388;28;20212;-58
2022/04/16 08:18:23;;;;;;;11.20;10.30;;;11.20;70.90;;;;;;5011350;28;20251;-59
2022/04/16 08:20:50;;;;;;;11.18;10.27;;;11.30;70.80;;;;;;5030870;28;20234;-58
2022/04/16 08:23:17;;;;;;;11.65;10.65;;;11.40;71.30;;;;;;5030901;28;20255;-58
2022/04/16 08:25:46;;;;;;;11.27;10.38;;;11.50;70.60;;;;;;5031115;28;20218;-54
2022/04/16 08:28:15;;;;;;;11.90;10.90;;;11.40;70.70;;;;;;5030310;28;20206;-57
2022/04/16 08:30:43;;;;;;;11.20;10.18;;;11.50;70.00;;;;;;5030824;28;20202;-57
2022/04/16 08:33:15;;;;;;;11.20;10.20;;;11.40;70.10;;;;;;5030482;28;20210;-59
2022/04/16 08:35:43;;;;;;;11.82;10.73;;;11.40;70.60;;;;;;5030664;28;20207;-57
2022/04/16 08:38:10;;;;;;;11.65;10.65;;;11.40;72.30;;;;;;5030950;28;20230;-58
2022/04/16 08:40:38;;;;;;;11.05;10.15;;;11.50;71.20;;;;;;5030741;28;20572;-57
2022/04/16 08:43:06;;;;;;;12.68;11.57;;;11.50;71.40;;;;;;5031071;28;20202;-57
2022/04/16 08:45:37;;;;;;;11.73;10.63;;;11.40;71.00;;;;;;5029712;28;20202;-57
2022/04/16 08:48:04;;;;;;;11.50;10.55;;;11.50;71.40;;;;;;5030657;28;20206;-57
2022/04/16 08:50:32;;;;;;;11.60;10.60;;;11.70;70.40;;;;;;5030899;28;20230;-57
2022/04/16 08:53:00;;;;;;;11.57;10.68;;;11.80;69.60;;;;;;5030859;28;20234;-58
2022/04/16 08:55:28;;;;;;;11.48;10.48;;;11.90;69.00;;;;;;5030710;28;20209;-57
2022/04/16 08:57:56;;;;;;;11.18;10.18;;;11.90;70.30;;;;;;5030880;28;20215;-57
2022/04/16 09:00:23;;;;;;;11.88;10.98;;;12.00;71.00;;;;;;5029303;28;20279;-58
2022/04/16 09:02:53;;;;;;;11.88;10.88;;;12.10;70.90;;;;;;5030317;28;20306;-57
2022/04/16 09:05:20;;;;;;;12.07;11.15;;;12.20;70.20;;;;;;5030633;28;20237;-58
2022/04/16 09:07:48;;;;;;;12.18;11.07;;;12.30;69.40;;;;;;5030380;28;20202;-57
2022/04/16 09:10:16;;;;;;;11.70;10.57;;;12.10;69.00;;;;;;5030666;28;20247;-58
2022/04/16 09:12:44;;;;;;;12.73;11.52;;;12.10;68.90;;;;;;5030537;28;20298;-58
2022/04/16 09:15:13;;;;;;;12.05;11.05;;;12.10;68.70;;;;;;5029167;28;20666;-57
2022/04/16 09:17:41;;;;;;;11.43;10.38;;;12.00;70.30;;;;;;5030162;28;20210;-58
2022/04/16 09:20:12;;;;;;;13.02;11.80;;;11.90;70.80;;;;;;5030528;28;20234;-58
2022/04/16 09:22:40;;;;;;;12.65;11.45;;;11.90;70.90;;;;;;5030421;28;20198;-58
2022/04/16 09:25:15;;;;;;;13.60;12.30;;;11.90;71.00;;;;;;5030309;28;20234;-57
2022/04/16 09:27:45;;;;;;;12.95;11.77;;;11.80;70.20;;;;;;5030131;28;20202;-58
2022/04/16 09:30:12;;;;;;;12.27;11.30;;;11.70;70.50;;;;;;5029194;28;20210;-57
2022/04/16 09:32:46;;;;;;;13.48;12.27;;;11.70;70.30;;;;;;5030480;28;20198;-58
2022/04/16 09:35:31;;;;;;;12.23;11.13;;;11.60;71.20;;;;;;5030048;28;20334;-58
2022/04/16 09:37:59;;;;;;;13.60;12.25;;;11.40;71.10;;;;;;5029979;28;20237;-58
2022/04/16 09:40:27;;;;;;;13.65;12.35;;;11.50;71.50;;;;;;5029655;28;20202;-58
2022/04/16 09:42:56;;;;;;;12.63;11.40;;;11.50;72.10;;;;;;5029644;28;20201;-56
2022/04/16 09:45:22;;;;;;;14.13;12.82;;;11.50;71.40;;;;;;5028293;28;20234;-58
2022/04/16 09:47:51;;;;;;;13.63;12.43;;;11.50;71.30;;;;;;5029954;28;20566;-58
2022/04/16 09:50:19;;;;;;;13.27;12.18;;;11.50;72.30;;;;;;5029980;28;20210;-57
2022/04/16 09:52:52;;;;;;;13.35;11.43;;;11.50;70.40;;;;;;5029610;28;20232;-58
2022/04/16 09:55:22;;;;;;;13.00;11.90;;;11.60;70.20;;;;;;5029609;28;20237;-57
2022/04/16 09:57:53;;;;;;;12.68;11.60;;;11.50;70.20;;;;;;5030455;28;20210;-58
2022/04/16 10:00:21;;;;;;;14.38;13.02;;;11.40;71.00;;;;;;5029188;28;20233;-57
2022/04/16 10:02:48;;;;;;;12.95;11.77;;;11.40;70.70;;;;;;5030430;28;20292;-57
2022/04/16 10:05:15;;;;;;;13.57;12.27;;;11.40;70.60;;;;;;5030230;28;20316;-57
2022/04/16 10:07:44;;;;;;;13.15;11.95;;;11.40;71.60;;;;;;5030454;28;20281;-58
2022/04/16 10:10:19;;;;;;;14.02;12.60;;;11.40;70.60;;;;;;5030245;28;20219;-58
2022/04/16 10:13:03;;;;;;;12.15;10.95;;;11.40;71.80;;;;;;5030229;28;20208;-58
2022/04/16 10:15:40;;;;;;;11.95;10.90;;;11.40;69.80;;;;;;5028874;28;20202;-58
2022/04/16 10:18:07;;;;;;;12.52;11.32;;;11.50;70.70;;;;;;5029997;28;20213;-58
2022/04/16 10:20:34;;;;;;;13.43;12.02;;;11.50;70.20;;;;;;5030169;28;20296;-58
2022/04/16 10:23:03;;;;;;;11.40;10.35;;;11.60;70.00;;;;;;5030101;28;20237;-57
2022/04/16 10:25:36;;;;;;;12.93;11.80;;;11.80;70.80;;;;;;5030018;28;20232;-58
2022/04/16 10:28:05;;;;;;;13.55;12.35;;;12.10;69.20;;;;;;5030081;28;20206;-57
2022/04/16 10:30:42;;;;;;;12.15;10.95;;;12.30;67.70;;;;;;5028561;28;20210;-57
2022/04/16 10:33:19;;;;;;;12.60;11.40;;;12.50;67.80;;;;;;5029952;28;20367;-58
2022/04/16 10:35:50;;;;;;;11.95;10.85;;;12.50;67.90;;;;;;5029947;28;20750;-57
2022/04/16 10:38:32;;;;;;;11.93;10.82;;;12.50;66.40;;;;;;5029794;28;20233;-58
2022/04/16 10:41:02;;;;;;;11.82;10.93;;;12.50;67.60;;;;;;5029882;28;20226;-58
2022/04/16 10:43:30;;;;;;;13.35;12.10;;;12.50;67.30;;;;;;5028516;28;20218;-57
2022/04/16 10:46:01;;;;;;;13.43;12.20;;;12.40;66.70;;;;;;5029679;28;20240;-58
2022/04/16 10:48:29;;;;;;;13.23;11.93;;;12.30;67.50;;;;;;5029658;28;20203;-58
2022/04/16 10:50:58;;;;;;;12.70;11.60;;;12.30;68.40;;;;;;5029780;28;20202;-57
2022/04/16 10:53:30;;;;;;;13.52;12.32;;;12.40;67.30;;;;;;5029705;28;20202;-58
2022/04/16 10:55:58;;;;;;;12.23;11.23;;;12.40;68.30;;;;;;5032026;28;20344;-58
2022/04/16 10:58:30;;;;;;;12.40;11.38;;;12.40;66.90;;;;;;5031888;28;20562;-58
2022/04/16 11:01:08;;;;;;;13.48;12.18;;;12.40;66.00;;;;;;5033295;28;20205;-58
2022/04/16 11:03:42;;;;;;;12.23;11.25;;;12.50;65.80;;;;;;5033071;28;20293;-58
2022/04/16 11:06:09;;;;;;;12.52;11.50;;;12.40;64.80;;;;;;5033320;28;20201;-58
2022/04/16 11:08:37;;;;;;;12.80;11.68;;;12.20;66.30;;;;;;5032960;28;20210;-58
2022/04/16 11:11:05;;;;;;;12.15;11.20;;;12.20;67.30;;;;;;5033302;28;20296;-58
2022/04/16 11:13:35;;;;;;;12.70;11.40;;;12.20;67.10;;;;;;5031764;28;20293;-58
2022/04/16 11:16:02;;;;;;;11.45;10.52;;;12.30;67.20;;;;;;5032864;28;20210;-58
2022/04/16 11:18:42;;;;;;;12.75;11.65;;;12.50;66.00;;;;;;5032593;28;20213;-57
2022/04/16 11:21:11;;;;;;;12.70;11.70;;;12.40;65.30;;;;;;5032953;28;20235;-58
2022/04/16 11:23:48;;;;;;;11.85;10.90;;;12.40;66.50;;;;;;5032881;28;20202;-58
2022/04/16 11:34:33;;;;;;;11.88;10.98;;;12.50;64.80;;;;;;5032705;28;20229;-58
2022/04/16 11:37:00;;;;;;;10.60;9.80;;;12.70;62.90;;;;;;5032690;28;20203;-58
2022/04/16 11:39:30;;;;;;;10.40;9.70;;;12.80;63.80;;;;;;5032434;28;20241;-58
2022/04/16 11:41:58;;;;;;;10.43;9.68;;;12.90;63.60;;;;;;5032550;28;20202;-58
2022/04/16 11:44:41;;;;;;;11.32;10.32;;;13.20;63.20;;;;;;5031497;28;20684;-58
2022/04/16 11:47:11;;;;;;;10.35;9.48;;;13.20;63.20;;;;;;5032450;28;20575;-58
2022/04/16 11:49:39;;;;;;;11.77;10.68;;;13.20;63.10;;;;;;5032193;28;20701;-58
2022/04/16 11:52:07;;;;;;;11.52;10.60;;;13.30;61.00;;;;;;5032495;28;20293;-58
2022/04/16 11:54:34;;;;;;;11.05;10.15;;;13.30;62.50;;;;;;5032361;28;20236;-58
2022/04/16 11:57:00;;;;;;;11.43;10.52;;;13.20;65.10;;;;;;5032458;28;20284;-58
2022/04/16 11:59:29;;;;;;;11.70;10.70;;;13.30;62.50;;;;;;5031092;28;20249;-58
2022/04/16 12:02:07;;;;;;;11.75;10.75;;;13.50;61.10;;;;;;5032354;28;20214;-58
2022/04/16 12:04:39;;;;;;;11.32;10.35;;;13.60;62.50;;;;;;5031952;28;20422;-58
2022/04/16 12:07:14;;;;;;;11.40;10.32;;;13.80;60.10;;;;;;5031555;28;20568;-58
2022/04/16 12:09:47;;;;;;;11.20;10.10;;;14.00;59.80;;;;;;5032131;28;20648;-59
2022/04/16 12:12:18;;;;;;;11.25;10.35;;;13.90;58.00;;;;;;5032091;28;20206;-58
2022/04/16 12:14:47;;;;;;;11.30;10.30;;;13.90;59.20;;;;;;5030594;28;20293;-58
2022/04/16 12:17:25;;;;;;;10.60;9.80;;;14.00;59.40;;;;;;5032033;28;20198;-58
2022/04/16 12:20:02;;;;;;;12.18;11.07;;;14.10;59.00;;;;;;5031794;28;20198;-57
2022/04/16 12:22:29;;;;;;;12.30;11.18;;;14.30;58.50;;;;;;5032008;28;20206;-58
2022/04/16 12:25:07;;;;;;;11.35;10.43;;;14.50;57.10;;;;;;5031998;28;20313;-58
2022/04/16 12:27:33;;;;;;;10.40;9.70;;;14.50;57.30;;;;;;5032020;28;20569;-59
2022/04/16 12:30:02;;;;;;;11.68;10.77;;;14.70;57.20;;;;;;5030397;28;20293;-59
2022/04/16 12:32:31;;;;;;;11.60;10.63;;;14.70;54.60;;;;;;5031783;28;20232;-58
2022/04/16 12:34:57;;;;;;;11.50;10.60;;;14.90;54.50;;;;;;5031451;28;20264;-58
2022/04/16 12:37:24;;;;;;;10.57;9.87;;;15.00;56.30;;;;;;5031720;28;20297;-58
2022/04/16 12:39:51;;;;;;;11.25;10.35;;;15.20;54.50;;;;;;5031292;28;20567;-59
2022/04/16 12:42:18;;;;;;;11.93;11.13;;;15.20;53.80;;;;;;5031628;28;20206;-58
2022/04/16 12:44:45;;;;;;;11.32;10.40;;;15.30;55.00;;;;;;5030228;28;20692;-58
2022/04/16 12:47:11;;;;;;;10.88;10.13;;;15.50;52.80;;;;;;5031507;28;20301;-57
2022/04/16 12:49:40;;;;;;;10.77;10.00;;;15.60;52.80;;;;;;5031428;28;20298;-58
2022/04/16 12:52:07;;;;;;;11.40;10.47;;;15.60;52.10;;;;;;5031493;28;20530;-58
2022/04/16 12:54:35;;;;;;;12.10;11.10;;;15.80;51.40;;;;;;5031388;28;20473;-58
2022/04/16 12:57:02;;;;;;;11.77;10.83;;;15.90;52.60;;;;;;5031490;28;20812;-58
2022/04/16 12:59:29;;;;;;;12.07;11.20;;;16.10;54.70;;;;;;5030270;28;20453;-59
2022/04/16 13:01:56;;;;;;;11.50;10.63;;;16.20;50.50;;;;;;5031320;28;20870;-58
2022/04/16 13:04:23;;;;;;;10.17;9.47;;;16.30;52.10;;;;;;5031214;28;20454;-58
2022/04/16 13:06:51;;;;;;;10.77;9.87;;;16.50;50.60;;;;;;5031251;28;20536;-58
2022/04/16 13:09:18;;;;;;;10.30;9.60;;;16.70;51.60;;;;;;5031304;28;20445;-59
2022/04/16 13:11:46;;;;;;;9.57;8.77;;;17.10;49.60;;;;;;5031190;28;20544;-58
2022/04/16 13:14:13;;;;;;;11.03;10.23;;;16.90;48.70;;;;;;5029895;28;20506;-58